createdAt,value
2023-03-29T00:00:34.022Z,1658.00
2023-03-29T00:01:36.029Z,1627.00
2023-03-29T00:02:34.057Z,1637.00
2023-03-29T00:03:34.136Z,1579.00
2023-03-29T00:04:34.183Z,1620.00
2023-03-29T00:05:34.056Z,1694.00
2023-03-29T00:06:34.054Z,1705.00
2023-03-29T00:07:34.044Z,1634.00
2023-03-29T00:08:34.095Z,1675.00
2023-03-29T00:09:34.033Z,1665.00
2023-03-29T00:10:34.104Z,1630.00
2023-03-29T00:11:34.062Z,1644.00
2023-03-29T00:12:34.055Z,1687.00
2023-03-29T00:13:34.052Z,1638.00
2023-03-29T00:14:34.038Z,1577.00
2023-03-29T00:15:34.037Z,1601.00
2023-03-29T00:16:34.083Z,1544.00
2023-03-29T00:17:34.101Z,1618.00
2023-03-29T00:18:34.022Z,1627.00
2023-03-29T00:19:34.037Z,1668.00
2023-03-29T00:20:34.030Z,1555.00
2023-03-29T00:21:34.055Z,1583.00
2023-03-29T00:22:34.066Z,1541.00
2023-03-29T00:23:34.038Z,1535.00
2023-03-29T00:24:34.050Z,1506.00
2023-03-29T00:25:34.062Z,1489.00
2023-03-29T00:26:34.071Z,1519.00
2023-03-29T00:27:34.051Z,1493.00
2023-03-29T00:28:34.034Z,1468.00
2023-03-29T00:29:34.054Z,1415.00
2023-03-29T00:30:34.026Z,1496.00
2023-03-29T00:31:34.079Z,1536.00
2023-03-29T00:32:34.149Z,1494.00
2023-03-29T00:33:34.032Z,1507.00
2023-03-29T00:34:34.032Z,1501.00
2023-03-29T00:35:34.074Z,1422.00
2023-03-29T00:36:34.022Z,1520.00
2023-03-29T00:37:34.111Z,1427.00
2023-03-29T00:38:34.013Z,1409.00
2023-03-29T00:39:34.014Z,1413.00
2023-03-29T00:40:34.018Z,1476.00
2023-03-29T00:41:34.011Z,1608.00
2023-03-29T00:42:33.993Z,1615.00
2023-03-29T00:43:33.998Z,1584.00
2023-03-29T00:44:34.009Z,1527.00
2023-03-29T00:45:33.995Z,1574.00
2023-03-29T00:46:34.044Z,1588.00
2023-03-29T00:47:34.095Z,1535.00
2023-03-29T00:48:33.997Z,1556.00
2023-03-29T00:49:33.989Z,1528.00
2023-03-29T00:50:34.137Z,1522.00
2023-03-29T00:51:33.972Z,1632.00
2023-03-29T00:52:33.970Z,1578.00
2023-03-29T00:53:33.951Z,1566.00
2023-03-29T00:54:33.951Z,1533.00
2023-03-29T00:55:33.950Z,1571.00
2023-03-29T00:56:33.968Z,1533.00
2023-03-29T00:57:33.991Z,1559.00
2023-03-29T00:58:33.941Z,1556.00
2023-03-29T00:59:33.945Z,1617.00
2023-03-29T01:00:33.948Z,1622.00
2023-03-29T01:01:34.094Z,1576.00
2023-03-29T01:02:33.965Z,1614.00
2023-03-29T01:03:33.953Z,1572.00
2023-03-29T01:04:33.964Z,1590.00
2023-03-29T01:05:33.965Z,1636.00
2023-03-29T01:06:34.008Z,1741.00
2023-03-29T01:07:33.908Z,1739.00
2023-03-29T01:08:33.904Z,1731.00
2023-03-29T01:09:33.903Z,1675.00
2023-03-29T01:10:33.911Z,1669.00
2023-03-29T01:11:33.897Z,1655.00
2023-03-29T01:12:33.890Z,1576.00
2023-03-29T01:13:33.891Z,1577.00
2023-03-29T01:14:33.899Z,1617.00
2023-03-29T01:15:33.875Z,1641.00
2023-03-29T01:16:33.915Z,1544.00
2023-03-29T01:17:33.924Z,1535.00
2023-03-29T01:18:33.869Z,1479.00
2023-03-29T01:19:33.889Z,1516.00
2023-03-29T01:20:33.876Z,1524.00
2023-03-29T01:21:33.877Z,1534.00
2023-03-29T01:22:33.891Z,1562.00
2023-03-29T01:23:33.842Z,1575.00
2023-03-29T01:24:33.835Z,1631.00
2023-03-29T01:25:33.839Z,1610.00
2023-03-29T01:26:33.849Z,1535.00
2023-03-29T01:27:33.838Z,1459.00
2023-03-29T01:28:33.858Z,1504.00
2023-03-29T01:29:33.829Z,1525.00
2023-03-29T01:30:33.816Z,1484.00
2023-03-29T01:31:33.875Z,1430.00
2023-03-29T01:32:33.853Z,1450.00
2023-03-29T01:33:33.809Z,1428.00
2023-03-29T01:34:33.808Z,1442.00
2023-03-29T01:35:33.833Z,1383.00
2023-03-29T01:36:33.814Z,1374.00
2023-03-29T01:37:33.815Z,1346.00
2023-03-29T01:38:33.801Z,1360.00
2023-03-29T01:39:33.784Z,1350.00
2023-03-29T01:40:33.788Z,1378.00
2023-03-29T01:41:33.793Z,1338.00
2023-03-29T01:42:33.780Z,1369.00
2023-03-29T01:43:33.781Z,1398.00
2023-03-29T01:44:33.775Z,1341.00
2023-03-29T01:45:33.787Z,1407.00
2023-03-29T01:46:33.879Z,1364.00
2023-03-29T01:47:33.828Z,1320.00
2023-03-29T01:48:33.780Z,1383.00
2023-03-29T01:49:33.778Z,1384.00
2023-03-29T01:50:33.777Z,1375.00
2023-03-29T01:51:33.766Z,1380.00
2023-03-29T01:52:33.783Z,1384.00
2023-03-29T01:53:33.781Z,1385.00
2023-03-29T01:54:33.788Z,1396.00
2023-03-29T01:55:33.778Z,1289.00
2023-03-29T01:56:33.772Z,1321.00
2023-03-29T01:57:33.783Z,1380.00
2023-03-29T01:58:33.811Z,1352.00
2023-03-29T01:59:33.779Z,1340.00
2023-03-29T02:00:33.784Z,1347.00
2023-03-29T02:01:33.805Z,1382.00
2023-03-29T02:02:33.838Z,1449.00
2023-03-29T02:03:33.899Z,1388.00
2023-03-29T02:04:33.745Z,1373.00
2023-03-29T02:05:33.779Z,1374.00
2023-03-29T02:06:33.764Z,1376.00
2023-03-29T02:07:33.736Z,1402.00
2023-03-29T02:08:33.748Z,1342.00
2023-03-29T02:09:33.745Z,1342.00
2023-03-29T02:10:33.742Z,1340.00
2023-03-29T02:11:33.737Z,1307.00
2023-03-29T02:12:33.748Z,1387.00
2023-03-29T02:13:33.740Z,1344.00
2023-03-29T02:14:33.744Z,1283.00
2023-03-29T02:15:33.817Z,1328.00
2023-03-29T02:16:33.723Z,1388.00
2023-03-29T02:17:33.741Z,1376.00
2023-03-29T02:18:33.709Z,1322.00
2023-03-29T02:19:33.711Z,1418.00
2023-03-29T02:20:33.712Z,1375.00
2023-03-29T02:21:33.724Z,1429.00
2023-03-29T02:22:33.725Z,1395.00
2023-03-29T02:23:33.718Z,1350.00
2023-03-29T02:24:33.717Z,1410.00
2023-03-29T02:25:33.721Z,1393.00
2023-03-29T02:26:33.715Z,1426.00
2023-03-29T02:27:33.696Z,1369.00
2023-03-29T02:28:33.738Z,1434.00
2023-03-29T02:29:33.712Z,1449.00
2023-03-29T02:30:33.703Z,1392.00
2023-03-29T02:31:33.737Z,1396.00
2023-03-29T02:32:33.719Z,1440.00
2023-03-29T02:33:33.694Z,1435.00
2023-03-29T02:34:33.694Z,1431.00
2023-03-29T02:35:33.682Z,1415.00
2023-03-29T02:36:33.678Z,1411.00
2023-03-29T02:37:33.726Z,1410.00
2023-03-29T02:38:33.669Z,1433.00
2023-03-29T02:39:33.671Z,1416.00
2023-03-29T02:40:33.677Z,1403.00
2023-03-29T02:41:33.656Z,1369.00
2023-03-29T02:42:33.660Z,1416.00
2023-03-29T02:43:33.667Z,1414.00
2023-03-29T02:44:33.641Z,1374.00
2023-03-29T02:45:33.649Z,1465.00
2023-03-29T02:46:33.653Z,1506.00
2023-03-29T02:47:33.668Z,1470.00
2023-03-29T02:48:33.652Z,1519.00
2023-03-29T02:49:33.658Z,1494.00
2023-03-29T02:50:33.676Z,1515.00
2023-03-29T02:51:33.639Z,1481.00
2023-03-29T02:52:33.659Z,1469.00
2023-03-29T02:53:33.646Z,1486.00
2023-03-29T02:54:33.638Z,1485.00
2023-03-29T02:55:33.640Z,1510.00
2023-03-29T02:56:33.624Z,1541.00
2023-03-29T02:57:33.630Z,1619.00
2023-03-29T02:58:33.643Z,1685.00
2023-03-29T02:59:33.637Z,1695.00
2023-03-29T03:00:33.640Z,1676.00
2023-03-29T03:01:33.665Z,1633.00
2023-03-29T03:02:33.673Z,1627.00
2023-03-29T03:03:33.726Z,1651.00
2023-03-29T03:04:33.591Z,1663.00
2023-03-29T03:05:33.623Z,1695.00
2023-03-29T03:06:33.624Z,1672.00
2023-03-29T03:07:33.622Z,1640.00
2023-03-29T03:08:33.606Z,1713.00
2023-03-29T03:09:33.596Z,1660.00
2023-03-29T03:10:33.590Z,1663.00
2023-03-29T03:11:33.615Z,1648.00
2023-03-29T03:12:33.591Z,1621.00
2023-03-29T03:13:33.600Z,1680.00
2023-03-29T03:14:33.586Z,1662.00
2023-03-29T03:15:33.584Z,1710.00
2023-03-29T03:16:33.652Z,1692.00
2023-03-29T03:17:33.641Z,1679.00
2023-03-29T03:18:33.586Z,1732.00
2023-03-29T03:19:33.566Z,1692.00
2023-03-29T03:20:33.623Z,1669.00
2023-03-29T03:21:33.603Z,1640.00
2023-03-29T03:22:33.560Z,1655.00
2023-03-29T03:23:33.551Z,1690.00
2023-03-29T03:24:33.546Z,1652.00
2023-03-29T03:25:33.553Z,1667.00
2023-03-29T03:26:33.581Z,1688.00
2023-03-29T03:27:33.542Z,1632.00
2023-03-29T03:28:33.562Z,1668.00
2023-03-29T03:29:33.563Z,1694.00
2023-03-29T03:30:33.543Z,1697.00
2023-03-29T03:31:33.620Z,1689.00
2023-03-29T03:32:33.581Z,1699.00
2023-03-29T03:33:33.561Z,1680.00
2023-03-29T03:34:33.537Z,1652.00
2023-03-29T03:35:33.566Z,1667.00
2023-03-29T03:36:33.522Z,1716.00
2023-03-29T03:37:33.543Z,1690.00
2023-03-29T03:38:33.536Z,1672.00
2023-03-29T03:39:33.563Z,1743.00
2023-03-29T03:40:33.563Z,1669.00
2023-03-29T03:41:33.531Z,1634.00
2023-03-29T03:42:33.534Z,1609.00
2023-03-29T03:43:33.510Z,1640.00
2023-03-29T03:44:33.505Z,1635.00
2023-03-29T03:45:33.573Z,1643.00
2023-03-29T03:46:33.505Z,1588.00
2023-03-29T03:47:33.524Z,1600.00
2023-03-29T03:48:33.497Z,1665.00
2023-03-29T03:49:33.494Z,1710.00
2023-03-29T03:50:33.480Z,1708.00
2023-03-29T03:51:33.501Z,1672.00
2023-03-29T03:52:33.496Z,1644.00
2023-03-29T03:53:33.485Z,1654.00
2023-03-29T03:54:33.473Z,1655.00
2023-03-29T03:55:33.463Z,1658.00
2023-03-29T03:56:33.490Z,1637.00
2023-03-29T03:57:33.470Z,1700.00
2023-03-29T03:58:33.468Z,1648.00
2023-03-29T03:59:33.470Z,1652.00
2023-03-29T04:00:33.484Z,1639.00
2023-03-29T04:01:33.467Z,1621.00
2023-03-29T04:02:33.628Z,1599.00
2023-03-29T04:03:33.524Z,1557.00
2023-03-29T04:04:33.509Z,1533.00
2023-03-29T04:05:33.485Z,1555.00
2023-03-29T04:06:33.474Z,1545.00
2023-03-29T04:07:33.472Z,1570.00
2023-03-29T04:08:33.468Z,1623.00
2023-03-29T04:09:33.516Z,1611.00
2023-03-29T04:10:33.458Z,1578.00
2023-03-29T04:11:33.477Z,1624.00
2023-03-29T04:12:33.457Z,1613.00
2023-03-29T04:13:33.465Z,1604.00
2023-03-29T04:14:33.455Z,1648.00
2023-03-29T04:15:33.483Z,1623.00
2023-03-29T04:16:33.458Z,1659.00
2023-03-29T04:17:33.610Z,1575.00
2023-03-29T04:18:33.580Z,1627.00
2023-03-29T04:19:33.470Z,1615.00
2023-03-29T04:20:33.468Z,1662.00
2023-03-29T04:21:33.460Z,1705.00
2023-03-29T04:22:33.446Z,1738.00
2023-03-29T04:23:33.446Z,1713.00
2023-03-29T04:24:33.454Z,1670.00
2023-03-29T04:25:33.462Z,1639.00
2023-03-29T04:26:33.435Z,1643.00
2023-03-29T04:27:33.446Z,1599.00
2023-03-29T04:28:33.453Z,1617.00
2023-03-29T04:29:33.533Z,1649.00
2023-03-29T04:30:33.423Z,1658.00
2023-03-29T04:31:33.463Z,1675.00
2023-03-29T04:32:33.490Z,1630.00
2023-03-29T04:33:33.477Z,1635.00
2023-03-29T04:34:33.450Z,1606.00
2023-03-29T04:35:33.606Z,1597.00
2023-03-29T04:36:33.440Z,1569.00
2023-03-29T04:37:33.465Z,1595.00
2023-03-29T04:38:33.476Z,1536.00
2023-03-29T04:39:33.455Z,1610.00
2023-03-29T04:40:33.470Z,1602.00
2023-03-29T04:41:33.448Z,1616.00
2023-03-29T04:42:33.436Z,1634.00
2023-03-29T04:43:33.457Z,1577.00
2023-03-29T04:44:33.511Z,1549.00
2023-03-29T04:45:33.454Z,1626.00
2023-03-29T04:46:33.536Z,1598.00
2023-03-29T04:47:33.486Z,1610.00
2023-03-29T04:48:33.456Z,1673.00
2023-03-29T04:49:33.473Z,1655.00
2023-03-29T04:50:33.466Z,1663.00
2023-03-29T04:51:33.503Z,1613.00
2023-03-29T04:52:33.544Z,1600.00
2023-03-29T04:53:33.528Z,1636.00
2023-03-29T04:54:33.547Z,1640.00
2023-03-29T04:55:33.530Z,1734.00
2023-03-29T04:56:33.541Z,1810.00
2023-03-29T04:57:33.579Z,1784.00
2023-03-29T04:58:33.578Z,1739.00
2023-03-29T04:59:33.585Z,1749.00
2023-03-29T05:00:33.614Z,1687.00
2023-03-29T05:01:33.632Z,1695.00
2023-03-29T05:02:33.660Z,1712.00
2023-03-29T05:03:33.646Z,1686.00
2023-03-29T05:04:33.656Z,1688.00
2023-03-29T05:05:33.656Z,1660.00
2023-03-29T05:06:33.666Z,1671.00
2023-03-29T05:07:33.639Z,1712.00
2023-03-29T05:08:33.675Z,1724.00
2023-03-29T05:09:35.523Z,1720.00
2023-03-29T05:10:33.672Z,1730.00
2023-03-29T05:11:33.703Z,1712.00
2023-03-29T05:12:33.697Z,1701.00
2023-03-29T05:13:33.705Z,1719.00
2023-03-29T05:14:33.719Z,1688.00
2023-03-29T05:15:33.704Z,1687.00
2023-03-29T05:16:33.764Z,1717.00
2023-03-29T05:17:33.746Z,1788.00
2023-03-29T05:18:33.743Z,1805.00
2023-03-29T05:19:33.714Z,1814.00
2023-03-29T05:20:33.741Z,1813.00
2023-03-29T05:21:33.731Z,1793.00
2023-03-29T05:22:33.739Z,1773.00
2023-03-29T05:23:33.743Z,1777.00
2023-03-29T05:24:33.726Z,1789.00
2023-03-29T05:25:33.992Z,1794.00
2023-03-29T05:26:33.734Z,1831.00
2023-03-29T05:27:33.744Z,1845.00
2023-03-29T05:28:33.818Z,1872.00
2023-03-29T05:29:33.759Z,1781.00
2023-03-29T05:30:33.794Z,1770.00
2023-03-29T05:31:33.793Z,1886.00
2023-03-29T05:32:33.810Z,1870.00
2023-03-29T05:33:33.834Z,1940.00
2023-03-29T05:34:33.808Z,1849.00
2023-03-29T05:35:33.898Z,1981.00
2023-03-29T05:36:33.846Z,2053.00
2023-03-29T05:37:33.855Z,2109.00
2023-03-29T05:38:33.946Z,2175.00
2023-03-29T05:39:36.406Z,2199.00
2023-03-29T05:40:33.926Z,2299.00
2023-03-29T05:41:33.931Z,2261.00
2023-03-29T05:42:33.930Z,2286.00
2023-03-29T05:43:33.907Z,2330.00
2023-03-29T05:44:33.903Z,2366.00
2023-03-29T05:45:33.951Z,2384.00
2023-03-29T05:46:33.901Z,2422.00
2023-03-29T05:47:33.885Z,2432.00
2023-03-29T05:48:33.862Z,2471.00
2023-03-29T05:49:33.849Z,2467.00
2023-03-29T05:50:33.872Z,2482.00
2023-03-29T05:51:33.859Z,2454.00
2023-03-29T05:52:33.832Z,2448.00
2023-03-29T05:53:33.838Z,2276.00
2023-03-29T05:54:33.820Z,2168.00
2023-03-29T05:55:33.846Z,2103.00
2023-03-29T05:56:33.827Z,2027.00
2023-03-29T05:57:33.811Z,1919.00
2023-03-29T05:58:33.800Z,1889.00
2023-03-29T05:59:33.821Z,1828.00
2023-03-29T06:00:33.813Z,1789.00
2023-03-29T06:01:33.786Z,1889.00
2023-03-29T06:02:33.886Z,2052.00
2023-03-29T06:03:33.975Z,2229.00
2023-03-29T06:04:34.007Z,2312.00
2023-03-29T06:05:33.792Z,2337.00
2023-03-29T06:06:33.745Z,2221.00
2023-03-29T06:07:33.745Z,2244.00
2023-03-29T06:08:33.797Z,2304.00
2023-03-29T06:09:33.717Z,2374.00
2023-03-29T06:10:33.787Z,2413.00
2023-03-29T06:11:33.726Z,2434.00
2023-03-29T06:12:33.715Z,2461.00
2023-03-29T06:13:33.694Z,2488.00
2023-03-29T06:14:33.697Z,2503.00
2023-03-29T06:15:33.702Z,2502.00
2023-03-29T06:16:33.756Z,2747.00
2023-03-29T06:17:33.798Z,2682.00
2023-03-29T06:18:33.693Z,2639.00
2023-03-29T06:19:33.676Z,2592.00
2023-03-29T06:20:33.676Z,2566.00
2023-03-29T06:21:33.732Z,2579.00
2023-03-29T06:22:33.771Z,2581.00
2023-03-29T06:23:33.795Z,2572.00
2023-03-29T06:24:33.857Z,2575.00
2023-03-29T06:25:33.891Z,2582.00
2023-03-29T06:26:33.952Z,2572.00
2023-03-29T06:27:33.969Z,2590.00
2023-03-29T06:28:34.006Z,2595.00
2023-03-29T06:29:34.026Z,2604.00
2023-03-29T06:30:34.073Z,2596.00
2023-03-29T06:31:34.629Z,2518.00
2023-03-29T06:32:34.142Z,2536.00
2023-03-29T06:33:34.232Z,2481.00
2023-03-29T06:34:35.518Z,2541.00
2023-03-29T06:35:34.303Z,2587.00
2023-03-29T06:36:34.314Z,2650.00
2023-03-29T06:37:34.337Z,2706.00
2023-03-29T06:38:34.359Z,2691.00
2023-03-29T06:39:34.390Z,2676.00
2023-03-29T06:40:34.397Z,3744.00
2023-03-29T06:41:34.409Z,3995.00
2023-03-29T06:42:34.452Z,3550.00
2023-03-29T06:43:34.464Z,3469.00
2023-03-29T06:44:34.486Z,3393.00
2023-03-29T06:45:34.512Z,3165.00
2023-03-29T06:46:35.351Z,3011.00
2023-03-29T06:47:35.051Z,2970.00
2023-03-29T06:48:34.605Z,3446.00
2023-03-29T06:49:34.630Z,3373.00
2023-03-29T06:50:34.642Z,3239.00
2023-03-29T06:51:35.431Z,3129.00
2023-03-29T06:52:35.023Z,3119.00
2023-03-29T06:53:34.662Z,3142.00
2023-03-29T06:54:34.660Z,3068.00
2023-03-29T06:55:34.681Z,2990.00
2023-03-29T06:56:34.680Z,2968.00
2023-03-29T06:57:34.704Z,2984.00
2023-03-29T06:58:34.721Z,2999.00
2023-03-29T06:59:35.021Z,2999.00
2023-03-29T07:00:34.726Z,2993.00
2023-03-29T07:01:34.920Z,2975.00
2023-03-29T07:02:35.175Z,2970.00
2023-03-29T07:03:34.787Z,2958.00
2023-03-29T07:04:34.818Z,2944.00
2023-03-29T07:05:34.781Z,2917.00
2023-03-29T07:06:34.808Z,2890.00
2023-03-29T07:07:35.036Z,2806.00
2023-03-29T07:08:34.842Z,2861.00
2023-03-29T07:09:34.840Z,2865.00
2023-03-29T07:10:34.861Z,2852.00
2023-03-29T07:11:34.893Z,2826.00
2023-03-29T07:12:34.883Z,2800.00
2023-03-29T07:13:34.965Z,2793.00
2023-03-29T07:14:34.928Z,2776.00
2023-03-29T07:15:34.933Z,2755.00
2023-03-29T07:16:35.004Z,2743.00
2023-03-29T07:17:35.102Z,2727.00
2023-03-29T07:18:34.972Z,2719.00
2023-03-29T07:19:34.995Z,2723.00
2023-03-29T07:20:34.991Z,2708.00
2023-03-29T07:21:36.692Z,2699.00
2023-03-29T07:22:34.977Z,2706.00
2023-03-29T07:23:34.967Z,2686.00
2023-03-29T07:24:34.982Z,2686.00
2023-03-29T07:25:34.964Z,2649.00
2023-03-29T07:26:34.947Z,2691.00
2023-03-29T07:27:35.049Z,2656.00
2023-03-29T07:28:35.039Z,2659.00
2023-03-29T07:29:34.926Z,2645.00
2023-03-29T07:30:34.930Z,2638.00
2023-03-29T07:31:34.913Z,2621.00
2023-03-29T07:32:35.009Z,2745.00
2023-03-29T07:33:35.157Z,2791.00
2023-03-29T07:34:34.909Z,2754.00
2023-03-29T07:35:35.102Z,2779.00
2023-03-29T07:36:34.883Z,2774.00
2023-03-29T07:37:35.055Z,2751.00
2023-03-29T07:38:34.869Z,2711.00
2023-03-29T07:39:34.888Z,2712.00
2023-03-29T07:40:34.863Z,2687.00
2023-03-29T07:41:34.863Z,2672.00
2023-03-29T07:42:34.846Z,2669.00
2023-03-29T07:43:34.831Z,2649.00
2023-03-29T07:44:34.820Z,2653.00
2023-03-29T07:45:34.835Z,2650.00
2023-03-29T07:46:34.837Z,2636.00
2023-03-29T07:47:34.901Z,2643.00
2023-03-29T07:48:34.791Z,2639.00
2023-03-29T07:49:35.047Z,2621.00
2023-03-29T07:50:34.813Z,2625.00
2023-03-29T07:51:34.773Z,2645.00
2023-03-29T07:52:34.766Z,2642.00
2023-03-29T07:53:34.753Z,2643.00
2023-03-29T07:54:34.795Z,2629.00
2023-03-29T07:55:34.769Z,2648.00
2023-03-29T07:56:34.751Z,2640.00
2023-03-29T07:57:34.755Z,2678.00
2023-03-29T07:58:34.763Z,2676.00
2023-03-29T07:59:35.049Z,2721.00
2023-03-29T08:00:34.812Z,2719.00
2023-03-29T08:01:34.724Z,2703.00
2023-03-29T08:02:34.706Z,2722.00
2023-03-29T08:03:34.761Z,2712.00
2023-03-29T08:04:34.781Z,2681.00
2023-03-29T08:05:41.296Z,2592.00
2023-03-29T08:06:35.660Z,2572.00
2023-03-29T08:07:34.668Z,2551.00
2023-03-29T08:08:34.674Z,2522.00
2023-03-29T08:09:34.646Z,2563.00
2023-03-29T08:10:34.661Z,2523.00
2023-03-29T08:11:34.649Z,2503.00
2023-03-29T08:12:34.652Z,2464.00
2023-03-29T08:13:34.624Z,2339.00
2023-03-29T08:14:34.614Z,2310.00
2023-03-29T08:15:35.072Z,2284.00
2023-03-29T08:16:34.665Z,2281.00
2023-03-29T08:17:34.649Z,2335.00
2023-03-29T08:18:35.097Z,2383.00
2023-03-29T08:19:34.594Z,2252.00
2023-03-29T08:20:35.052Z,2159.00
2023-03-29T08:21:34.572Z,2275.00
2023-03-29T08:22:34.584Z,2336.00
2023-03-29T08:23:34.566Z,2391.00
2023-03-29T08:24:34.590Z,2456.00
2023-03-29T08:25:34.552Z,2390.00
2023-03-29T08:26:34.544Z,2406.00
2023-03-29T08:27:34.566Z,2460.00
2023-03-29T08:28:34.589Z,2474.00
2023-03-29T08:29:34.649Z,2493.00
2023-03-29T08:30:34.623Z,2498.00
2023-03-29T08:31:34.819Z,2507.00
2023-03-29T08:32:34.662Z,2450.00
2023-03-29T08:33:34.655Z,2464.00
2023-03-29T08:34:34.661Z,2481.00
2023-03-29T08:35:34.791Z,2494.00
2023-03-29T08:36:34.688Z,2432.00
2023-03-29T08:37:34.672Z,2356.00
2023-03-29T08:38:34.709Z,2360.00
2023-03-29T08:39:34.705Z,2398.00
2023-03-29T08:40:34.751Z,2460.00
2023-03-29T08:41:34.718Z,2458.00
2023-03-29T08:42:34.734Z,2431.00
2023-03-29T08:43:35.061Z,2406.00
2023-03-29T08:44:34.697Z,2405.00
2023-03-29T08:45:34.717Z,2397.00
2023-03-29T08:46:35.661Z,2419.00
2023-03-29T08:47:34.723Z,2413.00
2023-03-29T08:48:34.715Z,2414.00
2023-03-29T08:49:34.731Z,2413.00
2023-03-29T08:50:34.729Z,2414.00
2023-03-29T08:51:34.736Z,2403.00
2023-03-29T08:52:34.752Z,2411.00
2023-03-29T08:53:34.811Z,2419.00
2023-03-29T08:54:34.796Z,2419.00
2023-03-29T08:55:34.748Z,2417.00
2023-03-29T08:56:34.775Z,2405.00
2023-03-29T08:57:34.785Z,2424.00
2023-03-29T08:58:34.865Z,2531.00
2023-03-29T08:59:34.892Z,2471.00
2023-03-29T09:00:34.841Z,2438.00
2023-03-29T09:01:35.018Z,2436.00
2023-03-29T09:02:35.056Z,2412.00
2023-03-29T09:03:35.030Z,2417.00
2023-03-29T09:04:35.023Z,2404.00
2023-03-29T09:05:35.064Z,2403.00
2023-03-29T09:06:35.139Z,2394.00
2023-03-29T09:07:35.153Z,2375.00
2023-03-29T09:08:35.165Z,2361.00
2023-03-29T09:09:35.262Z,2358.00
2023-03-29T09:10:35.257Z,2359.00
2023-03-29T09:11:35.328Z,2370.00
2023-03-29T09:12:36.605Z,2363.00
2023-03-29T09:13:35.483Z,2345.00
2023-03-29T09:14:35.528Z,2365.00
2023-03-29T09:15:35.562Z,2362.00
2023-03-29T09:16:35.643Z,2435.00
2023-03-29T09:17:36.113Z,2570.00
2023-03-29T09:18:35.747Z,2455.00
2023-03-29T09:19:35.798Z,2390.00
2023-03-29T09:20:35.848Z,2323.00
2023-03-29T09:21:35.924Z,2339.00
2023-03-29T09:22:35.966Z,2325.00
2023-03-29T09:23:36.017Z,2340.00
2023-03-29T09:24:36.079Z,2349.00
2023-03-29T09:25:41.075Z,2355.00
2023-03-29T09:26:37.154Z,2239.00
2023-03-29T09:27:36.636Z,2165.00
2023-03-29T09:28:36.105Z,2174.00
2023-03-29T09:29:36.131Z,2002.00
2023-03-29T09:30:36.091Z,2203.00
2023-03-29T09:31:36.146Z,2218.00
2023-03-29T09:32:36.190Z,1825.00
2023-03-29T09:33:36.081Z,1538.00
2023-03-29T09:34:36.066Z,1725.00
2023-03-29T09:35:36.142Z,1738.00
2023-03-29T09:36:36.043Z,1782.00
2023-03-29T09:37:36.062Z,1839.00
2023-03-29T09:38:36.039Z,1834.00
2023-03-29T09:39:36.024Z,1869.00
2023-03-29T09:40:36.035Z,1958.00
2023-03-29T09:41:36.020Z,2062.00
2023-03-29T09:42:36.004Z,2091.00
2023-03-29T09:43:35.999Z,2097.00
2023-03-29T09:44:36.076Z,2056.00
2023-03-29T09:45:35.996Z,2047.00
2023-03-29T09:46:35.997Z,2129.00
2023-03-29T09:47:36.055Z,2166.00
2023-03-29T09:48:36.108Z,2085.00
2023-03-29T09:49:36.129Z,2122.00
2023-03-29T09:50:36.180Z,2159.00
2023-03-29T09:51:36.230Z,2166.00
2023-03-29T09:52:36.289Z,2172.00
2023-03-29T09:53:36.343Z,2116.00
2023-03-29T09:54:36.400Z,2163.00
2023-03-29T09:55:36.451Z,2161.00
2023-03-29T09:56:36.518Z,2141.00
2023-03-29T09:57:36.591Z,2132.00
2023-03-29T09:58:36.629Z,2165.00
2023-03-29T09:59:36.679Z,2142.00
2023-03-29T10:00:36.800Z,2137.00
2023-03-29T10:01:36.791Z,2135.00
2023-03-29T10:02:36.845Z,2131.00
2023-03-29T10:03:37.137Z,2113.00
2023-03-29T10:04:37.181Z,2129.00
2023-03-29T10:05:36.971Z,2142.00
2023-03-29T10:06:37.010Z,2149.00
2023-03-29T10:07:37.055Z,2131.00
2023-03-29T10:08:37.105Z,2106.00
2023-03-29T10:09:37.609Z,2138.00
2023-03-29T10:10:37.186Z,1985.00
2023-03-29T10:11:37.245Z,2090.00
2023-03-29T10:12:37.251Z,2046.00
2023-03-29T10:13:37.309Z,2027.00
2023-03-29T10:14:37.362Z,1898.00
2023-03-29T10:15:37.412Z,2058.00
2023-03-29T10:16:37.478Z,1923.00
2023-03-29T10:17:37.553Z,1943.00
2023-03-29T10:18:37.553Z,1812.00
2023-03-29T10:19:38.123Z,1918.00
2023-03-29T10:20:37.684Z,1829.00
2023-03-29T10:21:37.731Z,2089.00
2023-03-29T10:22:37.880Z,2095.00
2023-03-29T10:23:37.820Z,2136.00
2023-03-29T10:24:38.129Z,2085.00
2023-03-29T10:25:39.215Z,2108.00
2023-03-29T10:26:37.869Z,2081.00
2023-03-29T10:27:37.852Z,1996.00
2023-03-29T10:28:37.791Z,1996.00
2023-03-29T10:29:37.825Z,2078.00
2023-03-29T10:30:37.773Z,2152.00
2023-03-29T10:31:37.805Z,2126.00
2023-03-29T10:32:37.949Z,2119.00
2023-03-29T10:33:37.788Z,2121.00
2023-03-29T10:34:37.744Z,2124.00
2023-03-29T10:35:37.820Z,2098.00
2023-03-29T10:36:37.730Z,2103.00
2023-03-29T10:37:37.745Z,2117.00
2023-03-29T10:38:37.744Z,2115.00
2023-03-29T10:39:37.744Z,2083.00
2023-03-29T10:40:37.713Z,2091.00
2023-03-29T10:41:37.701Z,2099.00
2023-03-29T10:42:37.682Z,2080.00
2023-03-29T10:43:37.705Z,2040.00
2023-03-29T10:44:37.687Z,2031.00
2023-03-29T10:45:37.665Z,2009.00
2023-03-29T10:46:37.735Z,2021.00
2023-03-29T10:47:37.664Z,2041.00
2023-03-29T10:48:37.642Z,2010.00
2023-03-29T10:49:37.657Z,2042.00
2023-03-29T10:50:37.617Z,2037.00
2023-03-29T10:51:37.617Z,1994.00
2023-03-29T10:52:37.617Z,1884.00
2023-03-29T10:53:37.638Z,1686.00
2023-03-29T10:54:37.610Z,1843.00
2023-03-29T10:55:37.628Z,1584.00
2023-03-29T10:56:37.620Z,1796.00
2023-03-29T10:57:37.843Z,1744.00
2023-03-29T10:58:37.593Z,1562.00
2023-03-29T10:59:37.680Z,1752.00
2023-03-29T11:00:37.642Z,1661.00
2023-03-29T11:01:37.813Z,1835.00
2023-03-29T11:02:37.836Z,1825.00
2023-03-29T11:03:37.994Z,1939.00
2023-03-29T11:04:37.855Z,1915.00
2023-03-29T11:05:37.921Z,1884.00
2023-03-29T11:06:38.018Z,1909.00
2023-03-29T11:07:38.071Z,1906.00
2023-03-29T11:08:38.082Z,1896.00
2023-03-29T11:09:38.165Z,1907.00
2023-03-29T11:10:38.224Z,1885.00
2023-03-29T11:11:38.295Z,1868.00
2023-03-29T11:12:38.326Z,1876.00
2023-03-29T11:13:38.372Z,1878.00
2023-03-29T11:14:38.431Z,1874.00
2023-03-29T11:15:38.747Z,1867.00
2023-03-29T11:16:38.517Z,1877.00
2023-03-29T11:17:38.632Z,1861.00
2023-03-29T11:18:38.624Z,1907.00
2023-03-29T11:19:38.648Z,1894.00
2023-03-29T11:20:38.722Z,1888.00
2023-03-29T11:21:38.770Z,1872.00
2023-03-29T11:22:38.816Z,1849.00
2023-03-29T11:23:38.864Z,1854.00
2023-03-29T11:24:38.917Z,1831.00
2023-03-29T11:25:38.940Z,1819.00
2023-03-29T11:26:38.990Z,1829.00
2023-03-29T11:27:39.019Z,1820.00
2023-03-29T11:28:39.075Z,1805.00
2023-03-29T11:29:39.119Z,1809.00
2023-03-29T11:30:39.168Z,1787.00
2023-03-29T11:31:39.320Z,1796.00
2023-03-29T11:32:39.244Z,1790.00
2023-03-29T11:33:39.292Z,1782.00
2023-03-29T11:34:39.327Z,1774.00
2023-03-29T11:35:39.428Z,1736.00
2023-03-29T11:36:39.438Z,1746.00
2023-03-29T11:37:39.474Z,1720.00
2023-03-29T11:38:39.504Z,1725.00
2023-03-29T11:39:39.547Z,1697.00
2023-03-29T11:40:39.586Z,1696.00
2023-03-29T11:41:39.648Z,1704.00
2023-03-29T11:42:39.657Z,1670.00
2023-03-29T11:43:39.720Z,1654.00
2023-03-29T11:44:39.725Z,1662.00
2023-03-29T11:45:39.798Z,1637.00
2023-03-29T11:46:39.853Z,1598.00
2023-03-29T11:47:39.952Z,1574.00
2023-03-29T11:48:39.883Z,1580.00
2023-03-29T11:49:39.937Z,1608.00
2023-03-29T11:50:39.937Z,1615.00
2023-03-29T11:51:40.011Z,1613.00
2023-03-29T11:52:40.098Z,1570.00
2023-03-29T11:53:40.046Z,1588.00
2023-03-29T11:54:40.631Z,1568.00
2023-03-29T11:55:40.136Z,1573.00
2023-03-29T11:56:40.225Z,1570.00
2023-03-29T11:57:40.671Z,1530.00
2023-03-29T11:58:40.215Z,1562.00
2023-03-29T11:59:40.258Z,1574.00
2023-03-29T12:00:40.287Z,1538.00
2023-03-29T12:01:40.341Z,1540.00
2023-03-29T12:02:40.882Z,1541.00
2023-03-29T12:03:40.546Z,1536.00
2023-03-29T12:04:40.428Z,1528.00
2023-03-29T12:05:40.469Z,1526.00